RJGG METAR and TAF | Updated Today

RJGG METAR

Chubu Centrair International Airport

Observation time: 19 min. ago

RJGG 061800Z AUTO 04003KT 9999 NSC 08/01 Q1019 NOSIG

Need help? Read our tutorial on how to read METARs or read the parsed version below.

Chubu Centrair International Airport (RJGG) METAR

  • Weather conditions on Mon, 06 Feb 2023 18:00:00 +0000 (19 min. ago):
  • Present conditions: Dry
  • Clouds: No significant clouds are observed
  • Visibility: Greater than 10 km
  • Wind: 40 degrees at 3 knots
  • Temperature: 8 celsius
  • Dew point: 1 celsius
  • Pressure: 1019 millibars
  • Remarks: None


Useful to know...

RJGG TAF

Chubu Centrair International Airport

TAF RJGG 061705Z 0618/0800 36010KT 9999 FEW020 SCT050 BECMG 0709/0712 30010KT BECMG 0721/0800 32020KT
Observation time: 74 min. ago
Need help? Read our tutorial on how to read TAFs or read the parsed version below.

Parsed version of TAF for Chubu Centrair International Airport (RJGG)

  • From 06 February at 18:00 UTC, to day 08 of the month at 00:00 UTC
  • Clouds: A few at 610 meters; scattered at 1524 meters
  • Visibility: Greater than 10 km
  • Wind: 360 degrees at 10
  • Expected to arise soon, from 07 February at 09:00 UTC, to day 07 of the month at 12:00 UTC
  • Wind: 300 degrees at 10
  • Expected to arise soon, from 07 February at 21:00 UTC, to day 08 of the month at 00:00 UTC
  • Wind: 320 degrees at 20